createdAt,value
2018-12-17T00:00:05.545Z,0.00
2018-12-17T00:01:05.604Z,0.00
2018-12-17T00:02:05.633Z,0.00
2018-12-17T00:03:05.694Z,0.00
2018-12-17T00:04:05.758Z,0.00
2018-12-17T00:05:05.792Z,0.00
2018-12-17T00:06:05.825Z,0.00
2018-12-17T00:07:05.866Z,0.00
2018-12-17T00:08:05.937Z,0.00
2018-12-17T00:09:05.971Z,0.00
2018-12-17T00:10:06.042Z,0.00
2018-12-17T00:11:06.091Z,0.00
2018-12-17T00:12:06.133Z,0.00
2018-12-17T00:13:06.180Z,0.00
2018-12-17T00:14:06.245Z,0.00
2018-12-17T00:15:06.279Z,0.00
2018-12-17T00:16:06.340Z,0.00
2018-12-17T00:17:06.412Z,0.00
2018-12-17T00:18:06.433Z,0.00
2018-12-17T00:19:06.450Z,0.00
2018-12-17T00:20:06.526Z,0.00
2018-12-17T00:21:06.585Z,0.00
2018-12-17T00:22:06.614Z,0.00
2018-12-17T00:23:06.670Z,0.00
2018-12-17T00:24:06.732Z,0.00
2018-12-17T00:25:06.774Z,0.00
2018-12-17T00:26:06.817Z,0.00
2018-12-17T00:27:06.889Z,0.00
2018-12-17T00:28:08.300Z,0.00
2018-12-17T00:29:07.013Z,0.00
2018-12-17T00:30:07.017Z,0.00
2018-12-17T00:31:07.057Z,0.00
2018-12-17T00:32:07.114Z,0.00
2018-12-17T00:33:07.151Z,0.00
2018-12-17T00:34:07.198Z,0.00
2018-12-17T00:35:07.235Z,0.00
2018-12-17T00:36:07.305Z,0.00
2018-12-17T00:37:07.348Z,0.00
2018-12-17T00:38:07.399Z,0.00
2018-12-17T00:39:07.455Z,0.00
2018-12-17T00:40:07.485Z,0.00
2018-12-17T00:41:07.553Z,0.00
2018-12-17T00:42:07.597Z,0.00
2018-12-17T00:43:07.639Z,0.00
2018-12-17T00:44:07.721Z,0.00
2018-12-17T00:45:07.741Z,0.00
2018-12-17T00:46:07.787Z,0.00
2018-12-17T00:47:07.878Z,0.00
2018-12-17T00:48:07.926Z,0.00
2018-12-17T00:49:07.919Z,0.00
2018-12-17T00:50:08.028Z,0.00
2018-12-17T00:51:08.050Z,0.00
2018-12-17T00:52:08.086Z,0.00
2018-12-17T00:53:08.111Z,0.00
2018-12-17T00:54:08.167Z,0.00
2018-12-17T00:55:08.219Z,0.00
2018-12-17T00:56:08.333Z,0.00
2018-12-17T00:57:08.331Z,0.00
2018-12-17T00:58:14.937Z,0.00
2018-12-17T00:59:08.443Z,0.00
2018-12-17T01:00:08.478Z,0.00
2018-12-17T01:01:08.505Z,0.00
2018-12-17T01:02:08.547Z,0.00
2018-12-17T01:03:08.666Z,0.00
2018-12-17T01:04:08.683Z,0.00
2018-12-17T01:05:08.718Z,0.00
2018-12-17T01:06:08.775Z,0.00
2018-12-17T01:07:08.811Z,0.00
2018-12-17T01:08:08.854Z,0.00
2018-12-17T01:09:08.894Z,0.00
2018-12-17T01:10:08.954Z,0.00
2018-12-17T01:11:09.043Z,0.00
2018-12-17T01:12:09.099Z,0.00
2018-12-17T01:13:09.113Z,0.00
2018-12-17T01:14:09.170Z,0.00
2018-12-17T01:15:09.185Z,0.00
2018-12-17T01:16:09.223Z,0.00
2018-12-17T01:17:09.289Z,0.00
2018-12-17T01:18:09.341Z,0.00
2018-12-17T01:19:09.396Z,0.00
2018-12-17T01:20:09.479Z,0.00
2018-12-17T01:21:09.495Z,0.00
2018-12-17T01:22:09.537Z,0.00
2018-12-17T01:23:09.579Z,0.00
2018-12-17T01:24:09.671Z,0.00
2018-12-17T01:25:09.678Z,0.00
2018-12-17T01:26:09.725Z,0.00
2018-12-17T01:27:09.746Z,0.00
2018-12-17T01:28:09.869Z,0.00
2018-12-17T01:29:09.902Z,0.00
2018-12-17T01:30:09.924Z,0.00
2018-12-17T01:31:09.960Z,0.00
2018-12-17T01:32:10.018Z,0.00
2018-12-17T01:33:10.063Z,0.00
2018-12-17T01:34:10.137Z,0.00
2018-12-17T01:35:10.156Z,0.00
2018-12-17T01:36:10.232Z,0.00
2018-12-17T01:37:10.259Z,0.00
2018-12-17T01:38:10.288Z,0.00
2018-12-17T01:39:10.358Z,0.00
2018-12-17T01:40:10.410Z,0.00
2018-12-17T01:41:10.456Z,0.00
2018-12-17T01:42:10.515Z,0.00
2018-12-17T01:43:10.538Z,0.00
2018-12-17T01:44:10.609Z,0.00
2018-12-17T01:45:10.653Z,0.00
2018-12-17T01:46:10.700Z,0.00
2018-12-17T01:47:10.761Z,0.00
2018-12-17T01:48:10.830Z,0.00
2018-12-17T01:49:10.918Z,0.00
2018-12-17T01:50:10.895Z,0.00
2018-12-17T01:51:10.967Z,0.00
2018-12-17T01:52:11.016Z,0.00
2018-12-17T01:53:11.026Z,0.00
2018-12-17T01:54:11.079Z,0.00
2018-12-17T01:55:11.127Z,0.00
2018-12-17T01:56:11.177Z,0.00
2018-12-17T01:57:11.214Z,0.00
2018-12-17T01:58:11.293Z,0.00
2018-12-17T01:59:11.313Z,0.00
2018-12-17T02:00:11.395Z,0.00
2018-12-17T02:01:11.412Z,0.00
2018-12-17T02:02:11.479Z,0.00
2018-12-17T02:03:11.535Z,0.00
2018-12-17T02:04:11.555Z,0.00
2018-12-17T02:05:11.615Z,0.00
2018-12-17T02:06:11.651Z,0.00
2018-12-17T02:07:11.694Z,0.00
2018-12-17T02:08:11.742Z,0.00
2018-12-17T02:09:11.797Z,0.00
2018-12-17T02:10:11.859Z,0.00
2018-12-17T02:11:11.940Z,0.00
2018-12-17T02:12:11.943Z,0.00
2018-12-17T02:13:12.044Z,0.00
2018-12-17T02:14:12.099Z,0.00
2018-12-17T02:15:12.102Z,0.00
2018-12-17T02:16:12.144Z,0.00
2018-12-17T02:17:12.213Z,0.00
2018-12-17T02:18:12.239Z,0.00
2018-12-17T02:19:12.307Z,0.00
2018-12-17T02:20:12.361Z,0.00
2018-12-17T02:21:12.397Z,0.00
2018-12-17T02:22:12.459Z,0.00
2018-12-17T02:23:12.543Z,0.00
2018-12-17T02:24:12.565Z,0.00
2018-12-17T02:25:12.611Z,0.00
2018-12-17T02:26:12.658Z,0.00
2018-12-17T02:27:12.661Z,0.00
2018-12-17T02:28:12.765Z,0.00
2018-12-17T02:29:12.785Z,0.00
2018-12-17T02:30:12.851Z,0.00
2018-12-17T02:31:12.886Z,0.00
2018-12-17T02:32:12.933Z,0.00
2018-12-17T02:33:12.988Z,0.00
2018-12-17T02:34:13.031Z,0.00
2018-12-17T02:35:13.064Z,0.00
2018-12-17T02:36:13.127Z,0.00
2018-12-17T02:37:13.205Z,0.00
2018-12-17T02:38:13.235Z,0.00
2018-12-17T02:39:13.282Z,0.00
2018-12-17T02:40:13.323Z,0.00
2018-12-17T02:41:13.379Z,0.00
2018-12-17T02:42:13.463Z,0.00
2018-12-17T02:43:13.484Z,0.00
2018-12-17T02:44:13.768Z,0.00
2018-12-17T02:45:13.573Z,0.00
2018-12-17T02:46:13.650Z,0.00
2018-12-17T02:47:13.676Z,0.00
2018-12-17T02:48:13.717Z,0.00
2018-12-17T02:49:13.771Z,0.00
2018-12-17T02:50:13.810Z,0.00
2018-12-17T02:51:13.892Z,0.00
2018-12-17T02:52:13.958Z,0.00
2018-12-17T02:53:13.990Z,0.00
2018-12-17T02:54:14.052Z,0.00
2018-12-17T02:55:14.075Z,0.00
2018-12-17T02:56:14.157Z,0.00
2018-12-17T02:57:14.139Z,0.00
2018-12-17T02:58:14.217Z,0.00
2018-12-17T02:59:14.246Z,0.00
2018-12-17T03:00:14.282Z,0.00
2018-12-17T03:01:14.331Z,0.00
2018-12-17T03:02:14.454Z,0.00
2018-12-17T03:03:14.450Z,0.00
2018-12-17T03:04:14.470Z,0.00
2018-12-17T03:05:14.531Z,0.00
2018-12-17T03:06:14.626Z,0.00
2018-12-17T03:07:14.678Z,0.00
2018-12-17T03:08:14.676Z,0.00
2018-12-17T03:09:14.749Z,0.00
2018-12-17T03:10:14.791Z,0.00
2018-12-17T03:11:14.874Z,0.00
2018-12-17T03:12:14.859Z,0.00
2018-12-17T03:13:14.927Z,0.00
2018-12-17T03:14:14.998Z,0.00
2018-12-17T03:15:15.032Z,0.00
2018-12-17T03:16:15.087Z,0.00
2018-12-17T03:17:15.106Z,0.00
2018-12-17T03:18:15.172Z,0.00
2018-12-17T03:19:15.234Z,0.00
2018-12-17T03:20:15.310Z,0.00
2018-12-17T03:21:15.312Z,0.00
2018-12-17T03:22:15.372Z,0.00
2018-12-17T03:23:15.425Z,0.00
2018-12-17T03:24:15.473Z,0.00
2018-12-17T03:25:15.533Z,0.00
2018-12-17T03:26:15.550Z,0.00
2018-12-17T03:27:15.610Z,0.00
2018-12-17T03:28:15.667Z,0.00
2018-12-17T03:29:15.732Z,0.00
2018-12-17T03:30:15.755Z,0.00
2018-12-17T03:31:15.792Z,0.00
2018-12-17T03:32:15.857Z,0.00
2018-12-17T03:33:15.906Z,0.00
2018-12-17T03:34:16.000Z,0.00
2018-12-17T03:35:16.010Z,0.00
2018-12-17T03:36:16.066Z,0.00
2018-12-17T03:37:16.097Z,0.00
2018-12-17T03:38:16.403Z,0.00
2018-12-17T03:39:16.207Z,0.00
2018-12-17T03:40:16.257Z,0.00
2018-12-17T03:41:16.288Z,0.00
2018-12-17T03:42:16.359Z,0.00
2018-12-17T03:43:16.378Z,0.00
2018-12-17T03:44:16.452Z,0.00
2018-12-17T03:45:16.479Z,0.00
2018-12-17T03:46:16.535Z,0.00
2018-12-17T03:47:16.573Z,0.00
2018-12-17T03:48:16.676Z,0.00
2018-12-17T03:49:16.676Z,0.00
2018-12-17T03:50:16.765Z,0.00
2018-12-17T03:51:16.782Z,0.00
2018-12-17T03:52:16.832Z,0.00
2018-12-17T03:53:16.906Z,0.00
2018-12-17T03:54:16.927Z,0.00
2018-12-17T03:55:16.968Z,0.00
2018-12-17T03:56:17.025Z,0.00
2018-12-17T03:57:17.078Z,0.00
2018-12-17T03:58:17.115Z,0.00
2018-12-17T03:59:17.161Z,0.00
2018-12-17T04:00:17.206Z,0.00
2018-12-17T04:01:17.252Z,0.00
2018-12-17T04:02:17.315Z,0.00
2018-12-17T04:03:17.368Z,0.00
2018-12-17T04:04:17.398Z,0.00
2018-12-17T04:05:17.463Z,0.00
2018-12-17T04:06:17.502Z,0.00
2018-12-17T04:07:17.553Z,0.00
2018-12-17T04:08:17.600Z,0.00
2018-12-17T04:09:17.639Z,0.00
2018-12-17T04:10:17.704Z,0.00
2018-12-17T04:11:17.743Z,0.00
2018-12-17T04:12:17.789Z,0.00
2018-12-17T04:13:17.834Z,0.00
2018-12-17T04:14:17.893Z,0.00
2018-12-17T04:15:17.960Z,0.00
2018-12-17T04:16:17.996Z,0.00
2018-12-17T04:17:18.051Z,0.00
2018-12-17T04:18:18.100Z,0.00
2018-12-17T04:19:18.123Z,0.00
2018-12-17T04:20:18.196Z,0.00
2018-12-17T04:21:18.223Z,0.00
2018-12-17T04:22:18.358Z,0.00
2018-12-17T04:23:18.336Z,0.00
2018-12-17T04:24:18.367Z,0.00
2018-12-17T04:25:18.724Z,0.00
2018-12-17T04:26:18.476Z,0.00
2018-12-17T04:27:18.563Z,0.00
2018-12-17T04:28:18.570Z,0.00
2018-12-17T04:29:18.594Z,0.00
2018-12-17T04:30:18.649Z,0.00
2018-12-17T04:31:18.715Z,0.00
2018-12-17T04:32:18.767Z,0.00
2018-12-17T04:33:18.842Z,0.00
2018-12-17T04:34:18.862Z,0.00
2018-12-17T04:35:18.915Z,0.00
2018-12-17T04:36:18.947Z,0.00
2018-12-17T04:37:19.011Z,0.00
2018-12-17T04:38:19.062Z,0.00
2018-12-17T04:39:19.104Z,0.00
2018-12-17T04:40:19.157Z,0.00
2018-12-17T04:41:19.209Z,0.00
2018-12-17T04:42:19.241Z,0.00
2018-12-17T04:43:19.323Z,0.00
2018-12-17T04:44:19.329Z,0.00
2018-12-17T04:45:19.388Z,0.00
2018-12-17T04:46:19.450Z,0.00
2018-12-17T04:47:19.480Z,0.00
2018-12-17T04:48:19.516Z,0.00
2018-12-17T04:49:19.581Z,0.00
2018-12-17T04:50:19.655Z,0.00
2018-12-17T04:51:19.936Z,0.00
2018-12-17T04:52:19.772Z,0.00
2018-12-17T04:53:19.777Z,0.00
2018-12-17T04:54:19.834Z,0.00
2018-12-17T04:55:19.883Z,0.00
2018-12-17T04:56:19.907Z,0.00
2018-12-17T04:57:19.969Z,0.00
2018-12-17T04:58:20.039Z,0.00
2018-12-17T04:59:20.061Z,0.00
2018-12-17T05:00:20.142Z,0.00
2018-12-17T05:01:20.174Z,0.00
2018-12-17T05:02:20.216Z,0.00
2018-12-17T05:03:20.261Z,0.00
2018-12-17T05:04:20.345Z,0.00
2018-12-17T05:05:20.356Z,0.00
2018-12-17T05:06:20.429Z,0.00
2018-12-17T05:07:20.507Z,0.00
2018-12-17T05:08:20.508Z,0.00
2018-12-17T05:09:20.551Z,0.00
2018-12-17T05:10:20.584Z,0.00
2018-12-17T05:11:20.667Z,0.00
2018-12-17T05:12:20.720Z,0.00
2018-12-17T05:13:20.757Z,0.00
2018-12-17T05:14:20.799Z,0.00
2018-12-17T05:15:20.818Z,0.00
2018-12-17T05:16:20.893Z,0.00
2018-12-17T05:17:20.940Z,0.00
2018-12-17T05:18:20.991Z,0.00
2018-12-17T05:19:21.042Z,0.00
2018-12-17T05:20:21.086Z,0.00
2018-12-17T05:21:21.148Z,0.00
2018-12-17T05:22:21.173Z,0.00
2018-12-17T05:23:21.232Z,0.00
2018-12-17T05:24:21.280Z,0.00
2018-12-17T05:25:21.344Z,0.00
2018-12-17T05:26:21.379Z,0.00
2018-12-17T05:27:21.429Z,0.00
2018-12-17T05:28:21.475Z,0.00
2018-12-17T05:29:21.885Z,0.00
2018-12-17T05:30:21.567Z,0.00
2018-12-17T05:31:21.601Z,0.00
2018-12-17T05:32:21.674Z,0.00
2018-12-17T05:33:21.702Z,0.00
2018-12-17T05:34:21.787Z,0.00
2018-12-17T05:35:21.802Z,0.00
2018-12-17T05:36:21.865Z,0.00
2018-12-17T05:37:21.957Z,0.00
2018-12-17T05:38:21.955Z,0.00
2018-12-17T05:39:22.003Z,0.00
2018-12-17T05:40:22.077Z,0.00
2018-12-17T05:41:22.078Z,0.00
2018-12-17T05:42:22.135Z,0.00
2018-12-17T05:43:22.171Z,0.00
2018-12-17T05:44:22.241Z,0.00
2018-12-17T05:45:22.276Z,0.00
2018-12-17T05:46:22.373Z,0.00
2018-12-17T05:47:22.380Z,0.00
2018-12-17T05:48:22.444Z,0.00
2018-12-17T05:49:22.454Z,0.00
2018-12-17T05:50:22.532Z,0.00
2018-12-17T05:51:22.589Z,0.00
2018-12-17T05:52:22.629Z,0.00
2018-12-17T05:53:22.663Z,0.00
2018-12-17T05:54:22.710Z,0.00
2018-12-17T05:55:22.773Z,0.00
2018-12-17T05:56:22.824Z,0.00
2018-12-17T05:57:22.872Z,0.00
2018-12-17T05:58:22.896Z,0.00
2018-12-17T05:59:28.584Z,0.00
2018-12-17T06:00:23.037Z,0.00
2018-12-17T06:01:23.047Z,0.00
2018-12-17T06:02:23.106Z,0.00
2018-12-17T06:03:23.134Z,0.00
2018-12-17T06:04:23.206Z,0.00
2018-12-17T06:05:23.316Z,0.00
2018-12-17T06:06:23.280Z,0.00
2018-12-17T06:07:23.349Z,0.00
2018-12-17T06:08:23.402Z,0.00
2018-12-17T06:09:23.451Z,0.00
2018-12-17T06:10:23.498Z,0.00
2018-12-17T06:11:23.547Z,0.00
2018-12-17T06:12:23.582Z,0.00
2018-12-17T06:13:23.630Z,0.00
2018-12-17T06:14:23.686Z,0.00
2018-12-17T06:15:23.743Z,0.00
2018-12-17T06:16:23.786Z,0.00
2018-12-17T06:17:23.838Z,0.00
2018-12-17T06:18:23.877Z,0.00
2018-12-17T06:19:23.927Z,0.00
2018-12-17T06:20:23.971Z,0.00
2018-12-17T06:21:24.024Z,0.00
2018-12-17T06:22:24.145Z,0.00
2018-12-17T06:23:24.117Z,0.00
2018-12-17T06:24:24.156Z,0.00
2018-12-17T06:25:24.214Z,0.00
2018-12-17T06:26:24.258Z,0.00
2018-12-17T06:27:24.313Z,0.00
2018-12-17T06:28:24.365Z,0.00
2018-12-17T06:29:24.415Z,0.00
2018-12-17T06:30:24.451Z,0.00
2018-12-17T06:31:24.497Z,0.00
2018-12-17T06:32:24.566Z,0.00
2018-12-17T06:33:24.637Z,0.00
2018-12-17T06:34:24.641Z,0.00
2018-12-17T06:35:24.683Z,0.00
2018-12-17T06:36:25.016Z,0.00
2018-12-17T06:37:24.799Z,0.00
2018-12-17T06:38:24.837Z,0.00
2018-12-17T06:39:24.904Z,0.00
2018-12-17T06:40:24.982Z,0.00
2018-12-17T06:41:24.980Z,0.00
2018-12-17T06:42:25.077Z,0.00
2018-12-17T06:43:25.133Z,0.00
2018-12-17T06:44:25.144Z,0.00
2018-12-17T06:45:25.179Z,0.00
2018-12-17T06:46:25.238Z,0.00
2018-12-17T06:47:25.308Z,0.00
2018-12-17T06:48:25.312Z,0.00
2018-12-17T06:49:25.433Z,0.00
2018-12-17T06:50:25.473Z,0.00
2018-12-17T06:51:25.477Z,0.00
2018-12-17T06:52:25.629Z,0.00
2018-12-17T06:53:25.575Z,0.00
2018-12-17T06:54:25.662Z,0.00
2018-12-17T06:55:25.684Z,0.00
2018-12-17T06:56:25.766Z,0.00
2018-12-17T06:57:25.739Z,0.00
2018-12-17T06:58:25.817Z,0.00
2018-12-17T06:59:25.864Z,0.00
2018-12-17T07:00:25.900Z,0.00
2018-12-17T07:01:26.010Z,0.00
2018-12-17T07:02:26.228Z,0.00
2018-12-17T07:03:26.029Z,0.00
2018-12-17T07:04:26.085Z,0.00
2018-12-17T07:05:26.151Z,0.00
2018-12-17T07:06:26.196Z,0.00
2018-12-17T07:07:26.234Z,0.00
2018-12-17T07:08:26.282Z,0.00
2018-12-17T07:09:26.338Z,0.00
2018-12-17T07:10:26.392Z,0.00
2018-12-17T07:11:26.396Z,0.00
2018-12-17T07:12:26.472Z,0.00
2018-12-17T07:13:26.516Z,0.00
2018-12-17T07:14:26.579Z,0.00
2018-12-17T07:15:26.609Z,0.00
2018-12-17T07:16:26.647Z,0.00
2018-12-17T07:17:26.754Z,0.00
2018-12-17T07:18:26.778Z,0.00
2018-12-17T07:19:26.812Z,0.00
2018-12-17T07:20:26.868Z,0.00
2018-12-17T07:21:26.892Z,0.00
2018-12-17T07:22:26.952Z,0.00
2018-12-17T07:23:27.000Z,0.00
2018-12-17T07:24:27.046Z,0.00
2018-12-17T07:25:27.101Z,0.00
2018-12-17T07:26:28.748Z,0.00
2018-12-17T07:27:27.195Z,0.00
2018-12-17T07:28:27.497Z,0.00
2018-12-17T07:29:27.288Z,0.00
2018-12-17T07:30:27.348Z,0.00
2018-12-17T07:31:27.428Z,0.00
2018-12-17T07:32:27.413Z,0.00
2018-12-17T07:33:27.476Z,0.00
2018-12-17T07:34:27.507Z,0.00
2018-12-17T07:35:27.579Z,0.00
2018-12-17T07:36:27.611Z,0.00
2018-12-17T07:37:27.670Z,0.00
2018-12-17T07:38:27.735Z,0.00
2018-12-17T07:39:27.761Z,0.00
2018-12-17T07:40:27.788Z,0.00
2018-12-17T07:41:27.864Z,0.00
2018-12-17T07:42:27.888Z,0.00
2018-12-17T07:43:27.963Z,0.00
2018-12-17T07:44:28.040Z,0.00
2018-12-17T07:45:28.048Z,0.00
2018-12-17T07:46:28.085Z,0.00
2018-12-17T07:47:28.143Z,0.00
2018-12-17T07:48:28.213Z,0.00
2018-12-17T07:49:28.278Z,0.00
2018-12-17T07:50:28.284Z,0.00
2018-12-17T07:51:28.333Z,0.00
2018-12-17T07:52:28.391Z,0.00
2018-12-17T07:53:28.478Z,0.00
2018-12-17T07:54:28.493Z,0.00
2018-12-17T07:55:28.512Z,0.00
2018-12-17T07:56:28.556Z,0.00
2018-12-17T07:57:28.623Z,0.00
2018-12-17T07:58:28.667Z,0.00
2018-12-17T07:59:28.747Z,0.00
2018-12-17T08:00:28.768Z,0.00
2018-12-17T08:01:28.858Z,0.00
2018-12-17T08:02:28.851Z,0.00
2018-12-17T08:03:28.909Z,0.00
2018-12-17T08:04:28.955Z,0.00
2018-12-17T08:05:29.300Z,0.00
2018-12-17T08:06:29.031Z,0.00
2018-12-17T08:07:29.135Z,0.00
2018-12-17T08:08:35.199Z,0.00
2018-12-17T08:09:29.191Z,5.63
2018-12-17T08:10:29.230Z,5.63
2018-12-17T08:11:29.270Z,5.63
2018-12-17T08:12:29.341Z,5.63
2018-12-17T08:13:29.359Z,5.63
2018-12-17T08:14:29.412Z,11.25
2018-12-17T08:15:29.480Z,11.25
2018-12-17T08:16:29.754Z,11.25
2018-12-17T08:17:29.559Z,16.88
2018-12-17T08:18:29.616Z,16.88
2018-12-17T08:19:29.637Z,16.88
2018-12-17T08:20:29.707Z,22.50
2018-12-17T08:21:29.760Z,22.50
2018-12-17T08:22:29.804Z,22.50
2018-12-17T08:23:29.847Z,28.13
2018-12-17T08:24:31.244Z,28.13
2018-12-17T08:25:29.935Z,33.75
2018-12-17T08:26:30.010Z,39.38
2018-12-17T08:27:30.281Z,39.38
2018-12-17T08:28:30.069Z,45.00
2018-12-17T08:29:30.142Z,50.63
2018-12-17T08:30:30.196Z,50.63
2018-12-17T08:31:30.226Z,56.25
2018-12-17T08:32:30.267Z,56.25
2018-12-17T08:33:30.317Z,61.88
2018-12-17T08:34:30.368Z,67.50
2018-12-17T08:35:30.391Z,73.13
2018-12-17T08:36:30.454Z,73.13
2018-12-17T08:37:30.513Z,78.75
2018-12-17T08:38:30.558Z,84.38
2018-12-17T08:39:30.591Z,84.38
2018-12-17T08:40:30.681Z,84.38
2018-12-17T08:41:30.702Z,90.00
2018-12-17T08:42:30.994Z,95.63
2018-12-17T08:43:30.792Z,101.25
2018-12-17T08:44:30.850Z,106.88
2018-12-17T08:45:30.892Z,106.88
2018-12-17T08:46:30.938Z,112.50
2018-12-17T08:47:30.976Z,118.13
2018-12-17T08:48:31.034Z,123.75
2018-12-17T08:49:31.087Z,129.38
2018-12-17T08:50:31.126Z,135.00
2018-12-17T08:51:31.188Z,140.63
2018-12-17T08:52:31.196Z,146.25
2018-12-17T08:53:31.525Z,151.88
2018-12-17T08:54:31.320Z,151.88
2018-12-17T08:55:31.358Z,157.50
2018-12-17T08:56:31.397Z,163.13
2018-12-17T08:57:37.803Z,168.75
2018-12-17T08:58:31.516Z,174.38
2018-12-17T08:59:31.595Z,180.00
2018-12-17T09:00:31.607Z,185.63
2018-12-17T09:01:31.673Z,185.63
2018-12-17T09:02:31.704Z,191.25
2018-12-17T09:03:31.727Z,191.25
2018-12-17T09:04:31.806Z,191.25
2018-12-17T09:05:31.846Z,196.88
2018-12-17T09:06:31.894Z,202.50
2018-12-17T09:07:31.940Z,202.50
2018-12-17T09:08:31.987Z,213.75
2018-12-17T09:09:32.033Z,213.75
2018-12-17T09:10:32.080Z,219.38
2018-12-17T09:11:32.135Z,225.00
2018-12-17T09:12:32.206Z,264.38
2018-12-17T09:13:32.217Z,281.25
2018-12-17T09:14:32.322Z,264.38
2018-12-17T09:15:32.328Z,258.75
2018-12-17T09:16:32.354Z,270.00
2018-12-17T09:17:32.403Z,315.00
2018-12-17T09:18:32.464Z,303.75
2018-12-17T09:19:32.514Z,286.88
2018-12-17T09:20:32.610Z,275.63
2018-12-17T09:21:32.617Z,264.38
2018-12-17T09:22:32.657Z,270.00
2018-12-17T09:23:32.711Z,264.38
2018-12-17T09:24:32.802Z,275.63
2018-12-17T09:25:32.810Z,286.88
2018-12-17T09:26:32.849Z,286.88
2018-12-17T09:27:32.914Z,286.88
2018-12-17T09:28:32.973Z,303.75
2018-12-17T09:29:33.013Z,309.38
2018-12-17T09:30:33.069Z,309.38
2018-12-17T09:31:33.097Z,298.13
2018-12-17T09:32:33.142Z,303.75
2018-12-17T09:33:33.187Z,320.63
2018-12-17T09:34:33.253Z,320.63
2018-12-17T09:35:33.288Z,326.25
2018-12-17T09:36:33.352Z,331.88
2018-12-17T09:37:33.395Z,331.88
2018-12-17T09:38:33.457Z,337.50
2018-12-17T09:39:33.505Z,343.13
2018-12-17T09:40:33.540Z,354.38
2018-12-17T09:41:33.597Z,360.00
2018-12-17T09:42:33.627Z,371.25
2018-12-17T09:43:33.692Z,371.25
2018-12-17T09:44:33.739Z,371.25
2018-12-17T09:45:33.796Z,388.13
2018-12-17T09:46:33.826Z,399.38
2018-12-17T09:47:33.864Z,388.13
2018-12-17T09:48:33.941Z,388.13
2018-12-17T09:49:33.973Z,388.13
2018-12-17T09:50:34.025Z,433.13
2018-12-17T09:51:34.082Z,421.88
2018-12-17T09:52:34.123Z,393.75
2018-12-17T09:53:34.213Z,371.25
2018-12-17T09:54:34.227Z,376.88
2018-12-17T09:55:34.286Z,388.13
2018-12-17T09:56:34.328Z,433.13
2018-12-17T09:57:34.397Z,421.88
2018-12-17T09:58:34.419Z,438.75
2018-12-17T09:59:34.480Z,427.50
2018-12-17T10:00:34.560Z,427.50
2018-12-17T10:01:34.597Z,433.13
2018-12-17T10:02:34.646Z,433.13
2018-12-17T10:03:34.701Z,455.63
2018-12-17T10:04:34.748Z,433.13
2018-12-17T10:05:34.801Z,399.38
2018-12-17T10:06:34.871Z,483.75
2018-12-17T10:07:34.875Z,393.75
2018-12-17T10:08:34.959Z,421.88
2018-12-17T10:09:35.012Z,405.00
2018-12-17T10:10:35.042Z,438.75
2018-12-17T10:11:35.092Z,630.00
2018-12-17T10:12:35.154Z,787.50
2018-12-17T10:13:35.244Z,405.00
2018-12-17T10:14:35.254Z,545.63
2018-12-17T10:15:35.303Z,1254.38
2018-12-17T10:16:35.332Z,1305.00
2018-12-17T10:17:35.408Z,1153.13
2018-12-17T10:18:37.011Z,1276.88
2018-12-17T10:19:35.495Z,1254.38
2018-12-17T10:20:35.553Z,1254.38
2018-12-17T10:21:35.596Z,1260.00
2018-12-17T10:22:35.648Z,1282.50
2018-12-17T10:23:35.718Z,1293.75
2018-12-17T10:24:35.774Z,1316.25
2018-12-17T10:25:35.810Z,1310.63
2018-12-17T10:26:35.923Z,1271.25
2018-12-17T10:27:35.922Z,1288.13
2018-12-17T10:28:35.974Z,1321.88
2018-12-17T10:29:36.039Z,1265.63
2018-12-17T10:30:36.086Z,1293.75
2018-12-17T10:31:36.148Z,1321.88
2018-12-17T10:32:36.226Z,1333.13
2018-12-17T10:33:36.259Z,1383.75
2018-12-17T10:34:36.316Z,1366.88
2018-12-17T10:35:36.361Z,1355.63
2018-12-17T10:36:36.438Z,1395.00
2018-12-17T10:37:36.550Z,1428.75
2018-12-17T10:38:36.523Z,1445.63
2018-12-17T10:39:36.640Z,1518.75
2018-12-17T10:40:36.639Z,1586.25
2018-12-17T10:41:36.717Z,1591.88
2018-12-17T10:42:36.781Z,1580.63
2018-12-17T10:43:36.820Z,1535.63
2018-12-17T10:44:36.857Z,1575.00
2018-12-17T10:45:36.928Z,1546.88
2018-12-17T10:46:36.988Z,1501.88
2018-12-17T10:47:37.083Z,1608.75
2018-12-17T10:48:37.104Z,1653.75
2018-12-17T10:49:37.168Z,1653.75
2018-12-17T10:50:37.223Z,1642.50
2018-12-17T10:51:37.293Z,1580.63
2018-12-17T10:52:37.339Z,1569.38
2018-12-17T10:53:37.409Z,1665.00
2018-12-17T10:54:37.447Z,1704.38
2018-12-17T10:55:37.508Z,1777.50
2018-12-17T10:56:37.622Z,1760.63
2018-12-17T10:57:37.625Z,1625.63
2018-12-17T10:58:37.712Z,1580.63
2018-12-17T10:59:37.797Z,1749.38
2018-12-17T11:00:39.439Z,1867.50
2018-12-17T11:01:37.884Z,1867.50
2018-12-17T11:02:37.921Z,1816.88
2018-12-17T11:03:37.987Z,1833.75
2018-12-17T11:04:38.032Z,1816.88
2018-12-17T11:05:38.112Z,1890.00
2018-12-17T11:06:38.150Z,1906.88
2018-12-17T11:07:38.242Z,1940.63
2018-12-17T11:08:38.277Z,1906.88
2018-12-17T11:09:38.347Z,1957.50
2018-12-17T11:10:38.395Z,1890.00
2018-12-17T11:11:38.469Z,1783.13
2018-12-17T11:12:38.518Z,1771.88
2018-12-17T11:13:38.586Z,1794.38
2018-12-17T11:14:38.644Z,1811.25
2018-12-17T11:15:38.709Z,1878.75
2018-12-17T11:16:38.764Z,1963.13
2018-12-17T11:17:38.817Z,2008.13
2018-12-17T11:18:38.902Z,1980.00
2018-12-17T11:19:38.935Z,1918.13
2018-12-17T11:20:39.012Z,1946.25
2018-12-17T11:21:39.076Z,1895.63
2018-12-17T11:22:39.125Z,1957.50
2018-12-17T11:23:39.177Z,2002.50
2018-12-17T11:24:39.263Z,2025.00
2018-12-17T11:25:39.322Z,2008.13
2018-12-17T11:26:39.379Z,2008.13
2018-12-17T11:27:39.434Z,1996.88
2018-12-17T11:28:39.501Z,2075.63
2018-12-17T11:29:39.543Z,2131.88
2018-12-17T11:30:46.339Z,2075.63
2018-12-17T11:31:39.681Z,2081.25
2018-12-17T11:32:39.724Z,2115.00
2018-12-17T11:33:39.808Z,2047.50
2018-12-17T11:34:39.902Z,2002.50
2018-12-17T11:35:41.308Z,2025.00
2018-12-17T11:36:39.976Z,2025.00
2018-12-17T11:37:40.074Z,2008.13
2018-12-17T11:38:40.116Z,1968.75
2018-12-17T11:39:40.184Z,1980.00
2018-12-17T11:40:40.237Z,2002.50
2018-12-17T11:41:40.281Z,2188.13
2018-12-17T11:42:40.404Z,2328.75
2018-12-17T11:43:43.857Z,2210.63
2018-12-17T11:44:40.455Z,2227.50
2018-12-17T11:45:40.539Z,2244.38
2018-12-17T11:46:40.617Z,2317.50
2018-12-17T11:47:40.663Z,2323.13
2018-12-17T11:48:40.746Z,2216.25
2018-12-17T11:49:40.839Z,2250.00
2018-12-17T11:50:40.908Z,2272.50
2018-12-17T11:51:40.929Z,2244.38
2018-12-17T11:52:40.988Z,2171.25
2018-12-17T11:53:41.294Z,2160.00
2018-12-17T11:54:41.117Z,2233.13
2018-12-17T11:55:41.186Z,2227.50
2018-12-17T11:56:41.235Z,2233.13
2018-12-17T11:57:41.317Z,2373.75
2018-12-17T11:58:41.367Z,2323.13
2018-12-17T11:59:41.421Z,2278.13
2018-12-17T12:00:41.478Z,2323.13
2018-12-17T12:01:41.542Z,2368.13
2018-12-17T12:02:41.620Z,2446.88
2018-12-17T12:03:41.687Z,2418.75
2018-12-17T12:04:41.760Z,2396.25
2018-12-17T12:05:41.822Z,2435.63
2018-12-17T12:06:41.861Z,2283.75
2018-12-17T12:07:41.927Z,2300.63
2018-12-17T12:08:42.070Z,2351.25
2018-12-17T12:09:42.078Z,2334.38
2018-12-17T12:10:42.132Z,2306.25
2018-12-17T12:11:42.206Z,2368.13
2018-12-17T12:12:42.258Z,2621.25
2018-12-17T12:13:42.321Z,2570.63
2018-12-17T12:14:42.389Z,2435.63
2018-12-17T12:15:42.462Z,2317.50
2018-12-17T12:16:42.512Z,2233.13
2018-12-17T12:17:42.563Z,2165.63
2018-12-17T12:18:42.663Z,2250.00
2018-12-17T12:19:42.701Z,2407.50
2018-12-17T12:20:42.784Z,2373.75
2018-12-17T12:21:42.837Z,2188.13
2018-12-17T12:22:42.881Z,2160.00
2018-12-17T12:23:42.977Z,2345.63
2018-12-17T12:24:43.051Z,2413.13
2018-12-17T12:25:43.102Z,2525.63
2018-12-17T12:26:43.179Z,2525.63
2018-12-17T12:27:43.194Z,2396.25
2018-12-17T12:28:43.278Z,2266.88
2018-12-17T12:29:43.345Z,2266.88
2018-12-17T12:30:43.401Z,2300.63
2018-12-17T12:31:43.460Z,2283.75
2018-12-17T12:32:43.515Z,2435.63
2018-12-17T12:33:43.607Z,2649.38
2018-12-17T12:34:43.653Z,2548.13
2018-12-17T12:35:43.727Z,2413.13
2018-12-17T12:36:43.792Z,2413.13
2018-12-17T12:37:43.856Z,2452.50
2018-12-17T12:38:43.896Z,2475.00
2018-12-17T12:39:43.973Z,2452.50
2018-12-17T12:40:44.055Z,2469.38
2018-12-17T12:41:44.097Z,2424.38
2018-12-17T12:42:51.356Z,2362.50
2018-12-17T12:43:44.287Z,2351.25
2018-12-17T12:44:44.284Z,2469.38
2018-12-17T12:45:44.376Z,2446.88
2018-12-17T12:46:44.432Z,2401.88
2018-12-17T12:47:44.494Z,2300.63
2018-12-17T12:48:44.554Z,2379.38
2018-12-17T12:49:44.643Z,2413.13
2018-12-17T12:50:44.706Z,770.63
2018-12-17T12:51:44.770Z,2385.00
2018-12-17T12:52:44.842Z,2373.75
2018-12-17T12:53:44.890Z,2340.00
2018-12-17T12:54:44.948Z,2396.25
2018-12-17T12:55:45.025Z,2390.63